Flinterborg — PHPH — position and weather

sailwx.info

Track history (hours):
 
Tides and Currents Weather Stations Pressure Air Temp Water Temp Dewpoint Dewpoint Depression Visibility Wind Speed Wind Dir Waves Ship Positions

Flinterborg

Last reported at 2017-Apr-26 02:00 UTC. Time now 2017-Apr-26 02:13 UTC.
Position N 35°57' W 005°23'.

Length 111 m; draft 6.5 m.

Type: Cargo ship. MMSI: 245433000.

Date/timePositionNaut miles runAvg speedWind from/ knotsBaromVisibWave heightAir tempDewpointWater temp
2017-Apr-26 02:00N 35°57' W 005°23'5 9.0
2017-Apr-26 01:30N 35°54' W 005°19'1 1.1
2017-Apr-26 00:59N 35°54' W 005°19'0 0.0
2017-Apr-26 00:29N 35°54' W 005°19'0 0.0
2017-Apr-25 23:58N 35°54' W 005°19'0 0.0
2017-Apr-25 23:28N 35°54' W 005°19'0 0.0
2017-Apr-25 22:58N 35°54' W 005°19'0 0.0
2017-Apr-25 22:28N 35°54' W 005°19'0 0.0
2017-Apr-25 22:00N 35°54' W 005°19'0 0.0
2017-Apr-25 21:30N 35°54' W 005°19'0 0.0
2017-Apr-25 21:00N 35°54' W 005°19'0 0.0
2017-Apr-25 20:30N 35°54' W 005°19'0 0.0
2017-Apr-25 19:59N 35°54' W 005°19'0 0.0
2017-Apr-25 19:30N 35°54' W 005°19'1 1.2
2017-Apr-25 19:00N 35°54' W 005°19'1 2.4
2017-Apr-25 18:30N 35°55' W 005°18'0 0.6
2017-Apr-25 18:00N 35°55' W 005°19'0 0.4
2017-Apr-25 17:31N 35°55' W 005°18'3 6.3
2017-Apr-25 17:00N 35°56' W 005°15'21910.9
2017-Apr-24 20:59N 37°06' W 000°56'611.4
2017-Apr-24 20:29N 37°09' W 000°50'611.6
2017-Apr-24 19:58N 37°12' W 000°44'1711.3
2017-Apr-24 18:27N 37°21' W 000°26'510.9
2017-Apr-24 18:00N 37°24' W 000°21'610.9
2017-Apr-24 17:27N 37°27' W 000°14'511.0
2017-Apr-24 16:58N 37°29' W 000°08'911.3
2017-Apr-24 16:11N 37°34' E 000°01'511.3
2017-Apr-24 15:43N 37°37' E 000°07'7211.2
2017-Apr-24 09:16N 38°14' E 001°25'410.8
2017-Apr-24 08:56N 38°16' E 001°29'3410.9
2017-Apr-24 05:50N 38°33' E 002°06'1311.3
2017-Apr-24 04:39N 38°40' E 002°21'211.3
2017-Apr-24 04:27N 38°41' E 002°23'511.3
2017-Apr-24 04:00N 38°44' E 002°29'611.4
2017-Apr-24 03:30N 38°47' E 002°35'611.3
2017-Apr-24 03:00N 38°50' E 002°41'611.4
2017-Apr-24 02:30N 38°53' E 002°47'611.4
2017-Apr-24 01:59N 38°56' E 002°54'611.3
2017-Apr-24 01:29N 38°59' E 002°60'511.1
2017-Apr-24 01:00N 39°02' E 003°06'511.1
2017-Apr-24 00:30N 39°04' E 003°12'811.0
2017-Apr-23 23:49N 39°08' E 003°20'411.0
2017-Apr-23 23:25N 39°11' E 003°25'511.0
2017-Apr-23 22:57N 39°14' E 003°31'611.0
2017-Apr-23 22:25N 39°17' E 003°37'  
Track history (hours):
 
Tides and Currents Weather Stations Pressure Air Temp Water Temp Dewpoint Dewpoint Depression Visibility Wind Speed Wind Dir Waves Ship Positions

Flinterborg

Last reported at 2017-Apr-26 02:00 UTC. Time now 2017-Apr-26 02:13 UTC.
Position N 35°57' W 005°23'.

Length 111 m; draft 6.5 m.

Type: Cargo ship. MMSI: 245433000.

Date/timePositionNaut miles runAvg speedWind from/ knotsBaromVisibWave heightAir tempDewpointWater temp
2017-Apr-26 02:00N 35°57' W 005°23'5 9.0
2017-Apr-26 01:30N 35°54' W 005°19'1 1.1
2017-Apr-26 00:59N 35°54' W 005°19'0 0.0
2017-Apr-26 00:29N 35°54' W 005°19'0 0.0
2017-Apr-25 23:58N 35°54' W 005°19'0 0.0
2017-Apr-25 23:28N 35°54' W 005°19'0 0.0
2017-Apr-25 22:58N 35°54' W 005°19'0 0.0
2017-Apr-25 22:28N 35°54' W 005°19'0 0.0
2017-Apr-25 22:00N 35°54' W 005°19'0 0.0
2017-Apr-25 21:30N 35°54' W 005°19'0 0.0
2017-Apr-25 21:00N 35°54' W 005°19'0 0.0
2017-Apr-25 20:30N 35°54' W 005°19'0 0.0
2017-Apr-25 19:59N 35°54' W 005°19'0 0.0
2017-Apr-25 19:30N 35°54' W 005°19'1 1.2
2017-Apr-25 19:00N 35°54' W 005°19'1 2.4
2017-Apr-25 18:30N 35°55' W 005°18'0 0.6
2017-Apr-25 18:00N 35°55' W 005°19'0 0.4
2017-Apr-25 17:31N 35°55' W 005°18'3 6.3
2017-Apr-25 17:00N 35°56' W 005°15'21910.9
2017-Apr-24 20:59N 37°06' W 000°56'611.4
2017-Apr-24 20:29N 37°09' W 000°50'611.6
2017-Apr-24 19:58N 37°12' W 000°44'1711.3
2017-Apr-24 18:27N 37°21' W 000°26'510.9
2017-Apr-24 18:00N 37°24' W 000°21'610.9
2017-Apr-24 17:27N 37°27' W 000°14'511.0
2017-Apr-24 16:58N 37°29' W 000°08'911.3
2017-Apr-24 16:11N 37°34' E 000°01'511.3
2017-Apr-24 15:43N 37°37' E 000°07'7211.2
2017-Apr-24 09:16N 38°14' E 001°25'410.8
2017-Apr-24 08:56N 38°16' E 001°29'3410.9
2017-Apr-24 05:50N 38°33' E 002°06'1311.3
2017-Apr-24 04:39N 38°40' E 002°21'211.3
2017-Apr-24 04:27N 38°41' E 002°23'511.3
2017-Apr-24 04:00N 38°44' E 002°29'611.4
2017-Apr-24 03:30N 38°47' E 002°35'611.3
2017-Apr-24 03:00N 38°50' E 002°41'611.4
2017-Apr-24 02:30N 38°53' E 002°47'611.4
2017-Apr-24 01:59N 38°56' E 002°54'611.3
2017-Apr-24 01:29N 38°59' E 002°60'511.1
2017-Apr-24 01:00N 39°02' E 003°06'511.1
2017-Apr-24 00:30N 39°04' E 003°12'811.0
2017-Apr-23 23:49N 39°08' E 003°20'411.0
2017-Apr-23 23:25N 39°11' E 003°25'511.0
2017-Apr-23 22:57N 39°14' E 003°31'611.0
2017-Apr-23 22:25N 39°17' E 003°37'  

Dump ship's entire track history